Time;durP1;ratioP1;P1;durP2;ratioP2;P2;SDS_P1;SDS_P2;PMS_P1;PMS_P2;Temp;Humidity;BMP_temperature;BMP_pressure;BME280_temperature;BME280_humidity;BME280_pressure;Samples;Min_cycle;Max_cycle;Signal;HPM_P1;HPM_P2
2022/05/10 00:02:02;;;;;;;;;;;;;;;24.54;15.62;101333.41;5156017;28;20450;-76
2022/05/10 00:04:27;;;;;;;;;;;;;;;24.52;15.56;101319.97;5158727;27;20018;-75
2022/05/10 00:06:52;;;;;;;;;;;;;;;24.53;15.74;101327.09;5160525;27;20008;-75
2022/05/10 00:09:19;;;;;;;;;;;;;;;24.53;15.70;101320.84;5139954;27;20055;-74
2022/05/10 00:11:44;;;;;;;;;;;;;;;24.52;15.44;101328.19;5160879;27;19915;-76
2022/05/10 00:14:10;;;;;;;;;;;;;;;24.53;15.71;101321.66;5161047;27;19908;-76
2022/05/10 00:16:38;;;;;;;;;;;;;;;24.52;15.50;101322.72;5160986;27;19919;-76
2022/05/10 00:19:03;;;;;;;;;;;;;;;24.53;15.75;101331.75;5160931;27;19915;-76
2022/05/10 00:21:29;;;;;;;;;;;;;;;24.52;15.67;101314.50;5160660;27;19937;-74
2022/05/10 00:23:54;;;;;;;;;;;;;;;24.53;15.57;101326.28;5160036;27;19915;-77
2022/05/10 00:26:19;;;;;;;;;;;;;;;24.53;15.61;101321.66;5161136;27;19963;-76
2022/05/10 00:28:45;;;;;;;;;;;;;;;24.53;15.77;101309.91;5161340;27;19948;-76
2022/05/10 00:31:10;;;;;;;;;;;;;;;24.51;15.83;101306.59;5160092;27;19931;-75
2022/05/10 00:33:36;;;;;;;;;;;;;;;24.52;15.84;101300.84;5138696;27;19920;-73
2022/05/10 00:36:01;;;;;;;;;;;;;;;24.52;15.64;101300.84;5137672;27;19915;-75
2022/05/10 00:38:34;;;;;;;;;;;;;;;24.53;15.57;101299.78;5137773;27;19961;-74
2022/05/10 00:41:11;;;;;;;;;;;;;;;24.53;15.57;101294.31;5136973;27;19919;-74
2022/05/10 00:43:37;;;;;;;;;;;;;;;24.50;15.77;101289.38;5137732;27;20340;-75
2022/05/10 00:46:05;;;;;;;;;;;;;;;24.50;15.90;101294.84;5118916;27;19922;-76
2022/05/10 00:48:32;;;;;;;;;;;;;;;24.50;15.88;101294.84;5118637;27;20421;-74
2022/05/10 00:51:01;;;;;;;;;;;;;;;24.51;15.95;101288.28;5118490;27;20010;-74
2022/05/10 00:53:27;;;;;;;;;;;;;;;24.52;15.98;101292.66;5136901;27;19926;-74
2022/05/10 00:55:55;;;;;;;;;;;;;;;24.52;15.77;101292.66;5118039;27;19915;-75
2022/05/10 00:58:26;;;;;;;;;;;;;;;24.51;16.08;101296.50;5136451;27;19922;-75
2022/05/10 01:00:52;;;;;;;;;;;;;;;24.51;15.89;101288.28;5136884;27;19923;-75
2022/05/10 01:03:31;;;;;;;;;;;;;;;24.50;16.09;101289.38;5136682;27;19923;-74
2022/05/10 01:05:59;;;;;;;;;;;;;;;24.51;16.05;101284.75;5118233;27;19932;-75
2022/05/10 01:08:28;;;;;;;;;;;;;;;24.49;16.16;101276.81;5136966;27;19967;-74
2022/05/10 01:11:08;;;;;;;;;;;;;;;24.49;16.26;101276.81;5136188;27;19959;-74
2022/05/10 01:13:33;;;;;;;;;;;;;;;24.49;16.17;101276.81;5136223;27;19916;-74
2022/05/10 01:16:01;;;;;;;;;;;;;;;24.48;16.04;101274.34;5135698;27;19915;-74
2022/05/10 01:18:26;;;;;;;;;;;;;;;24.49;16.08;101263.16;5117620;27;19919;-73
2022/05/10 01:20:53;;;;;;;;;;;;;;;24.50;15.98;101267.50;5136498;27;19922;-74
2022/05/10 01:23:27;;;;;;;;;;;;;;;24.49;15.90;101265.88;5136056;27;20014;-74
2022/05/10 01:26:02;;;;;;;;;;;;;;;24.48;16.17;101264.22;5135701;27;20002;-74
2022/05/10 01:28:32;;;;;;;;;;;;;;;24.49;16.30;101257.69;5118053;27;19915;-75
2022/05/10 01:30:58;;;;;;;;;;;;;;;24.48;16.13;101258.75;5117855;27;19923;-73
2022/05/10 01:33:29;;;;;;;;;;;;;;;24.49;16.10;101254.94;5135805;27;20014;-74
2022/05/10 01:36:01;;;;;;;;;;;;;;;24.49;16.01;101249.47;5135664;27;19915;-73
2022/05/10 01:38:38;;;;;;;;;;;;;;;24.49;16.22;101254.94;5135925;27;20060;-74
2022/05/10 01:41:17;;;;;;;;;;;;;;;24.48;15.98;101253.28;5135652;27;19915;-74
2022/05/10 01:43:44;;;;;;;;;;;;;;;24.48;16.21;101247.81;5135575;27;19922;-76
2022/05/10 01:46:14;;;;;;;;;;;;;;;24.49;16.19;101244.03;5117160;27;20393;-74
2022/05/10 01:48:39;;;;;;;;;;;;;;;24.48;16.26;101250.56;5117467;27;20002;-74
2022/05/10 01:51:12;;;;;;;;;;;;;;;24.48;16.16;101241.53;5117543;27;20341;-74
2022/05/10 01:53:38;;;;;;;;;;;;;;;24.48;16.29;101242.34;5117432;27;19920;-73
2022/05/10 01:56:05;;;;;;;;;;;;;;;24.47;16.30;101235.22;5135670;27;19915;-75
2022/05/10 01:58:32;;;;;;;;;;;;;;;24.48;16.09;101236.06;5135308;27;20366;-72
2022/05/10 02:00:58;;;;;;;;;;;;;;;24.49;16.09;101235.81;5135534;27;19915;-74
2022/05/10 02:03:37;;;;;;;;;;;;;;;24.48;16.26;101233.34;5136102;27;19915;-75
2022/05/10 02:06:07;;;;;;;;;;;;;;;24.47;16.18;101229.78;5117338;27;20353;-73
2022/05/10 02:08:51;;;;;;;;;;;;;;;24.47;16.35;101221.56;5136105;27;19931;-72
2022/05/10 02:11:16;;;;;;;;;;;;;;;24.47;16.21;101220.75;5135131;27;19919;-74
2022/05/10 02:13:53;;;;;;;;;;;;;;;24.46;16.04;101217.22;5135056;27;20397;-76
2022/05/10 02:16:29;;;;;;;;;;;;;;;24.45;16.10;101215.56;5116427;27;20456;-74
2022/05/10 02:18:58;;;;;;;;;;;;;;;24.45;16.42;101210.09;5135309;27;19922;-74
2022/05/10 02:21:25;;;;;;;;;;;;;;;24.47;16.12;101213.38;5135227;27;19983;-76
2022/05/10 02:23:55;;;;;;;;;;;;;;;24.47;16.24;101202.44;5116796;27;19916;-72
2022/05/10 02:26:28;;;;;;;;;;;;;;;24.48;16.11;101208.75;5115772;28;19919;-74
2022/05/10 02:29:14;;;;;;;;;;;;;;;24.42;16.34;101193.41;5116375;27;19916;-76
2022/05/10 02:34:35;;;;;;;;;;;;;;;24.46;16.36;101200.81;5037771;28;20407;-73
2022/05/10 02:37:01;;;;;;;;;;;;;;;24.47;16.11;101196.97;5051544;28;19924;-75
2022/05/10 02:39:26;;;;;;;;;;;;;;;24.46;16.31;101197.28;5051448;28;19932;-74
2022/05/10 02:41:51;;;;;;;;;;;;;;;24.47;16.23;101190.69;5051459;28;20386;-73
2022/05/10 02:44:17;;;;;;;;;;;;;;;24.46;16.55;101189.88;5051453;28;19917;-76
2022/05/10 02:46:42;;;;;;;;;;;;;;;24.47;16.38;101196.97;5051518;28;19917;-74
2022/05/10 02:49:07;;;;;;;;;;;;;;;24.47;16.19;101180.59;5034802;28;20015;-76
2022/05/10 02:51:32;;;;;;;;;;;;;;;24.47;16.25;101175.13;5051415;28;19979;-74
2022/05/10 02:53:57;;;;;;;;;;;;;;;24.47;16.45;101174.31;5051272;28;19920;-76
2022/05/10 02:56:24;;;;;;;;;;;;;;;24.46;16.61;101170.75;5051562;28;19916;-73
2022/05/10 02:58:50;;;;;;;;;;;;;;;24.47;16.31;101166.94;5051308;28;19921;-75
2022/05/10 03:01:15;;;;;;;;;;;;;;;24.49;16.52;101162.06;5051079;28;20413;-74
2022/05/10 03:03:40;;;;;;;;;;;;;;;24.52;16.73;101156.03;5051189;28;19952;-74
2022/05/10 03:06:06;;;;;;;;;;;;;;;24.55;16.59;101162.94;5051382;28;19927;-75
2022/05/10 03:08:31;;;;;;;;;;;;;;;24.58;16.53;101158.84;5085489;28;19966;-74
2022/05/10 03:10:56;;;;;;;;;;;;;;;24.61;16.63;101159.16;5134615;28;19938;-75
2022/05/10 03:13:21;;;;;;;;;;;;;;;24.66;16.77;101167.38;5134566;28;19915;-74
2022/05/10 03:15:47;;;;;;;;;;;;;;;24.74;16.55;101163.34;5134692;28;19915;-75
2022/05/10 03:18:12;;;;;;;;;;;;;;;24.78;16.57;101169.91;5134637;28;20375;-73
2022/05/10 03:20:37;;;;;;;;;;;;;;;24.82;16.82;101167.47;5134468;28;19938;-73
2022/05/10 03:23:03;;;;;;;;;;;;;;;24.86;16.76;101161.22;5134241;28;19915;-74
2022/05/10 03:25:29;;;;;;;;;;;;;;;24.91;16.49;101161.25;5134253;28;19959;-73
2022/05/10 03:27:54;;;;;;;;;;;;;;;24.97;16.75;101172.22;5115982;28;19922;-76
2022/05/10 03:30:20;;;;;;;;;;;;;;;24.97;16.65;101155.81;5134035;28;19915;-73
2022/05/10 03:32:45;;;;;;;;;;;;;;;25.00;16.73;101155.28;5134134;28;19921;-75
2022/05/10 03:35:11;;;;;;;;;;;;;;;25.07;16.68;101153.13;5134200;28;19915;-74
2022/05/10 03:37:36;;;;;;;;;;;;;;;25.09;16.75;101140.00;5134283;27;19973;-74
2022/05/10 03:40:01;;;;;;;;;;;;;;;25.12;16.77;101148.50;5138463;27;19923;-78
2022/05/10 03:42:26;;;;;;;;;;;;;;;25.15;16.66;101138.09;5138230;27;19915;-73
2022/05/10 03:44:55;;;;;;;;;;;;;;;25.19;16.73;101134.56;5138414;27;20365;-76
2022/05/10 03:47:23;;;;;;;;;;;;;;;25.24;16.73;101139.25;5137970;27;19965;-72
2022/05/10 03:49:49;;;;;;;;;;;;;;;25.26;16.77;101139.81;5138096;27;20250;-74
2022/05/10 03:52:14;;;;;;;;;;;;;;;25.30;16.99;101147.25;5137736;27;19915;-76
2022/05/10 03:54:40;;;;;;;;;;;;;;;25.30;16.88;101140.94;5138099;27;19938;-73
2022/05/10 03:57:05;;;;;;;;;;;;;;;25.35;16.75;101151.06;5137938;27;20363;-75
2022/05/10 03:59:30;;;;;;;;;;;;;;;25.39;16.66;101138.50;5137885;27;20384;-72
2022/05/10 04:01:56;;;;;;;;;;;;;;;25.40;17.03;101137.41;5137772;27;19919;-74
2022/05/10 04:04:21;;;;;;;;;;;;;;;25.39;16.98;101136.59;5137846;27;20357;-74
2022/05/10 04:06:47;;;;;;;;;;;;;;;25.43;16.95;101125.94;5137721;27;19922;-73
2022/05/10 04:09:13;;;;;;;;;;;;;;;25.46;17.06;101125.41;5137370;27;19915;-74
2022/05/10 04:11:38;;;;;;;;;;;;;;;25.47;16.80;101122.41;5119391;27;19965;-73
2022/05/10 04:14:03;;;;;;;;;;;;;;;25.50;16.90;101118.28;5137353;27;19919;-75
2022/05/10 04:16:29;;;;;;;;;;;;;;;25.51;17.01;101122.69;5137494;27;20354;-75
2022/05/10 04:18:54;;;;;;;;;;;;;;;25.51;17.08;101114.47;5137526;27;20418;-74
2022/05/10 04:21:19;;;;;;;;;;;;;;;25.52;16.66;101116.09;5137254;27;20330;-74
2022/05/10 04:23:44;;;;;;;;;;;;;;;25.52;16.81;101113.34;5119052;27;20011;-76
2022/05/10 04:26:11;;;;;;;;;;;;;;;25.51;16.68;101106.25;5137053;27;20369;-73
2022/05/10 04:28:36;;;;;;;;;;;;;;;25.55;16.87;101110.09;5137164;27;20366;-75
2022/05/10 04:31:01;;;;;;;;;;;;;;;25.54;16.60;101105.69;5137645;27;20044;-74
2022/05/10 04:33:27;;;;;;;;;;;;;;;25.56;16.58;101114.47;5136872;27;20393;-73
2022/05/10 04:35:52;;;;;;;;;;;;;;;25.57;16.69;101105.16;5136857;27;19915;-74
2022/05/10 04:38:17;;;;;;;;;;;;;;;25.59;16.78;101110.38;5136930;27;19960;-73
2022/05/10 04:43:27;;;;;;;;;;;;;;;25.57;16.82;101109.81;5137177;27;19940;-74
2022/05/10 04:45:52;;;;;;;;;;;;;;;25.59;16.70;101102.16;5137296;27;19951;-75
2022/05/10 04:48:17;;;;;;;;;;;;;;;25.61;16.74;101100.81;5136720;27;20388;-73
2022/05/10 04:50:42;;;;;;;;;;;;;;;25.65;16.71;101106.56;5135931;27;19974;-75
2022/05/10 04:53:08;;;;;;;;;;;;;;;25.65;16.73;101101.09;5136492;27;20002;-76
2022/05/10 04:55:34;;;;;;;;;;;;;;;25.64;16.45;101096.69;5137023;27;19915;-73
2022/05/10 04:57:59;;;;;;;;;;;;;;;25.65;16.50;101104.63;5137094;27;20417;-75
2022/05/10 05:00:26;;;;;;;;;;;;;;;25.66;16.46;101098.06;5136991;27;20350;-77
2022/05/10 05:02:51;;;;;;;;;;;;;;;25.68;16.53;101097.78;5136409;27;20377;-73
2022/05/10 05:05:16;;;;;;;;;;;;;;;25.67;16.45;101098.88;5136830;27;19923;-74
2022/05/10 05:07:41;;;;;;;;;;;;;;;25.72;16.42;101089.88;5136654;27;20425;-74
2022/05/10 05:10:07;;;;;;;;;;;;;;;25.74;16.62;101087.69;5136552;27;19916;-73
2022/05/10 05:12:33;;;;;;;;;;;;;;;25.73;16.52;101092.31;5136652;27;20364;-75
2022/05/10 05:14:58;;;;;;;;;;;;;;;25.71;16.69;101091.75;5135923;27;19923;-74
2022/05/10 05:17:23;;;;;;;;;;;;;;;25.76;16.71;101085.50;5136193;27;19960;-74
2022/05/10 05:19:49;;;;;;;;;;;;;;;25.74;16.83;101079.47;5136391;27;19926;-74
2022/05/10 05:22:14;;;;;;;;;;;;;;;25.68;17.30;101081.34;5135784;27;19977;-76
2022/05/10 05:24:39;;;;;;;;;;;;;;;25.71;17.14;101080.00;5135726;27;19923;-75
2022/05/10 05:27:05;;;;;;;;;;;;;;;25.76;16.95;101069.88;5136757;27;19919;-75
2022/05/10 05:29:30;;;;;;;;;;;;;;;25.81;16.87;101077.28;5135738;27;19972;-76
2022/05/10 05:31:55;;;;;;;;;;;;;;;25.82;16.86;101067.97;5136667;27;19943;-74
2022/05/10 05:34:20;;;;;;;;;;;;;;;25.87;17.01;101076.16;5135823;27;19916;-74
2022/05/10 05:37:32;;;;;;;;;;;;;;;25.88;16.86;101077.81;5136289;27;19923;-74
2022/05/10 05:39:31;;;;;;;;;;;;;;;25.92;17.06;101070.69;5135412;27;19960;-74
2022/05/10 05:41:56;;;;;;;;;;;;;;;25.86;17.10;101069.88;5135334;27;19919;-74
2022/05/10 05:44:23;;;;;;;;;;;;;;;25.79;17.32;101068.53;5135241;27;19923;-72
2022/05/10 05:46:48;;;;;;;;;;;;;;;25.82;17.12;101062.50;5135444;27;20017;-74
2022/05/10 05:49:14;;;;;;;;;;;;;;;25.88;17.24;101064.13;5135190;27;19950;-75
2022/05/10 05:51:39;;;;;;;;;;;;;;;25.98;16.72;101058.69;5135389;27;19920;-73
2022/05/10 05:54:08;;;;;;;;;;;;;;;25.93;16.88;101057.84;5135526;27;19937;-73
2022/05/10 05:56:34;;;;;;;;;;;;;;;25.91;16.97;101055.38;5134749;27;19915;-74
2022/05/10 05:58:59;;;;;;;;;;;;;;;25.87;17.12;101059.75;5135271;27;19926;-73
2022/05/10 06:01:24;;;;;;;;;;;;;;;26.01;16.67;101054.59;5135261;27;20413;-72
2022/05/10 06:03:51;;;;;;;;;;;;;;;26.12;16.79;101055.38;5135186;27;19916;-74
2022/05/10 06:06:16;;;;;;;;;;;;;;;26.12;16.70;101045.25;5135066;27;19920;-74
2022/05/10 06:08:41;;;;;;;;;;;;;;;26.27;16.60;101058.09;5136109;27;19919;-73
2022/05/10 06:11:07;;;;;;;;;;;;;;;26.49;16.29;101045.97;5135601;27;19919;-72
2022/05/10 06:13:34;;;;;;;;;;;;;;;26.61;16.22;101047.34;5134937;27;20395;-73
2022/05/10 06:15:59;;;;;;;;;;;;;;;26.72;16.07;101042.66;5135411;27;20057;-75
2022/05/10 06:18:24;;;;;;;;;;;;;;;26.81;15.88;101050.31;5135251;27;19969;-74
2022/05/10 06:20:50;;;;;;;;;;;;;;;26.95;16.15;101034.88;5134688;27;19916;-73
2022/05/10 06:23:15;;;;;;;;;;;;;;;27.04;15.95;101035.91;5134620;27;19915;-73
2022/05/10 06:25:40;;;;;;;;;;;;;;;27.15;15.93;101037.50;5134743;27;19926;-73
2022/05/10 06:28:06;;;;;;;;;;;;;;;27.27;15.81;101026.19;5134657;27;20397;-74
2022/05/10 06:30:31;;;;;;;;;;;;;;;27.44;15.59;101031.31;5134742;27;19931;-75
2022/05/10 06:32:56;;;;;;;;;;;;;;;27.48;15.58;101020.59;5135779;27;19923;-76
2022/05/10 06:35:22;;;;;;;;;;;;;;;27.51;15.50;101022.72;5135355;27;19939;-75
2022/05/10 06:40:31;;;;;;;;;;;;;;;27.70;15.51;101025.63;5135594;27;20043;-74
2022/05/10 06:42:59;;;;;;;;;;;;;;;27.75;15.17;101019.25;5135503;27;19923;-74
2022/05/10 06:45:25;;;;;;;;;;;;;;;27.75;15.21;101017.31;5135652;27;19916;-74
2022/05/10 06:47:50;;;;;;;;;;;;;;;27.81;15.21;101013.44;5135459;27;19916;-74
2022/05/10 06:50:19;;;;;;;;;;;;;;;27.84;15.15;101018.34;5136968;27;19919;-74
2022/05/10 06:52:44;;;;;;;;;;;;;;;27.93;15.05;101009.53;5135958;28;19927;-74
2022/05/10 06:55:10;;;;;;;;;;;;;;;27.95;15.00;101012.81;5135719;28;20036;-75
2022/05/10 06:57:35;;;;;;;;;;;;;;;27.93;15.04;101002.09;5117099;28;19916;-75
2022/05/10 07:00:00;;;;;;;;;;;;;;;27.73;15.37;100994.81;5136094;28;20318;-74
2022/05/10 07:02:25;;;;;;;;;;;;;;;27.75;15.47;101000.84;5134638;28;19919;-74
2022/05/10 07:04:53;;;;;;;;;;;;;;;27.71;15.28;100989.63;5135022;28;20341;-73
2022/05/10 07:07:19;;;;;;;;;;;;;;;27.64;15.55;100991.06;5134686;28;19946;-72
2022/05/10 07:09:44;;;;;;;;;;;;;;;27.61;15.58;100994.38;5135274;28;20310;-73
2022/05/10 07:12:10;;;;;;;;;;;;;;;27.60;15.68;100990.84;5134513;27;19941;-74
2022/05/10 07:14:35;;;;;;;;;;;;;;;27.57;15.53;100996.91;5137592;27;20381;-74
2022/05/10 07:17:00;;;;;;;;;;;;;;;27.56;15.63;100999.94;5138699;27;19923;-77
2022/05/10 07:19:25;;;;;;;;;;;;;;;27.50;15.60;100986.25;5138930;27;19951;-73
2022/05/10 07:21:50;;;;;;;;;;;;;;;27.45;15.67;100983.53;5138850;27;19923;-72
2022/05/10 07:24:19;;;;;;;;;;;;;;;27.39;15.73;100984.69;5138925;27;20251;-72
2022/05/10 07:26:45;;;;;;;;;;;;;;;27.37;15.76;100978.66;5138312;27;19971;-72
2022/05/10 07:29:11;;;;;;;;;;;;;;;27.37;15.76;100978.66;5138287;27;19916;-72
2022/05/10 07:31:36;;;;;;;;;;;;;;;27.34;15.87;100971.00;5138908;27;19927;-73
2022/05/10 07:34:01;;;;;;;;;;;;;;;27.36;15.98;100968.78;5138699;27;19916;-73
2022/05/10 07:36:33;;;;;;;;;;;;;;;27.32;15.80;100964.97;5138295;27;20016;-73
2022/05/10 07:38:58;;;;;;;;;;;;;;;27.28;16.08;100961.97;5138062;27;19916;-72
2022/05/10 07:41:24;;;;;;;;;;;;;;;27.23;15.99;100959.25;5138859;27;19921;-72
2022/05/10 07:43:50;;;;;;;;;;;;;;;27.14;16.24;100956.28;5137980;27;19915;-72
2022/05/10 07:46:15;;;;;;;;;;;;;;;27.20;16.08;100953.50;5137693;27;19933;-72
2022/05/10 07:48:40;;;;;;;;;;;;;;;27.28;16.06;100955.69;5139293;27;19922;-73
2022/05/10 07:51:05;;;;;;;;;;;;;;;27.47;16.29;100951.13;5141098;27;19920;-74
2022/05/10 07:53:31;;;;;;;;;;;;;;;27.71;16.04;100950.38;5141493;27;19982;-76
2022/05/10 07:55:57;;;;;;;;;;;;;;;27.78;15.91;100939.84;5141157;27;19919;-74
2022/05/10 07:58:22;;;;;;;;;;;;;;;28.10;15.66;100950.28;5139826;27;19968;-75
2022/05/10 08:00:47;;;;;;;;;;;;;;;28.31;15.37;100944.53;5137608;27;19942;-74
2022/05/10 08:03:19;;;;;;;;;;;;;;;28.50;15.22;100936.31;5137694;27;20315;-75
2022/05/10 08:05:44;;;;;;;;;;;;;;;28.54;14.92;100929.09;5137501;27;19916;-74
2022/05/10 08:08:11;;;;;;;;;;;;;;;28.53;14.91;100924.75;5137864;27;20014;-73
2022/05/10 08:10:37;;;;;;;;;;;;;;;28.50;14.85;100932.75;5137341;27;19930;-72
2022/05/10 08:13:02;;;;;;;;;;;;;;;28.45;14.93;100928.13;5137096;27;19915;-72
2022/05/10 08:15:28;;;;;;;;;;;;;;;28.42;15.17;100929.56;5137599;27;19922;-76
2022/05/10 08:17:53;;;;;;;;;;;;;;;28.38;15.13;100922.19;5137196;27;19922;-76
2022/05/10 08:20:19;;;;;;;;;;;;;;;28.28;15.05;100923.13;5137276;27;20214;-74
2022/05/10 08:22:44;;;;;;;;;;;;;;;28.21;15.09;100912.50;5137078;27;19950;-74
2022/05/10 08:25:10;;;;;;;;;;;;;;;28.16;15.26;100918.03;5135770;27;19965;-73
2022/05/10 08:27:35;;;;;;;;;;;;;;;28.05;15.44;100913.81;5136742;27;19922;-73
2022/05/10 08:30:01;;;;;;;;;;;;;;;28.07;15.50;100923.38;5136850;27;19915;-72
2022/05/10 08:32:26;;;;;;;;;;;;;;;27.99;15.45;100904.78;5136978;27;19967;-74
2022/05/10 08:34:51;;;;;;;;;;;;;;;27.95;15.54;100902.94;5137131;27;20042;-75
2022/05/10 08:37:17;;;;;;;;;;;;;;;27.94;15.62;100915.00;5137229;27;19968;-74
2022/05/10 08:39:42;;;;;;;;;;;;;;;27.91;15.68;100910.91;5136983;27;19916;-73
2022/05/10 08:42:10;;;;;;;;;;;;;;;27.87;15.89;100907.94;5137114;27;20380;-75
2022/05/10 08:44:36;;;;;;;;;;;;;;;27.84;15.80;100907.69;5137722;27;19922;-73
2022/05/10 08:47:03;;;;;;;;;;;;;;;27.77;15.83;100910.78;5118752;27;20340;-74
2022/05/10 08:49:43;;;;;;;;;;;;;;;27.75;15.88;100904.75;5136770;27;20365;-74
2022/05/10 08:52:10;;;;;;;;;;;;;;;27.73;16.00;100901.47;5136703;27;19934;-73
2022/05/10 08:54:36;;;;;;;;;;;;;;;27.77;16.02;100897.06;5118373;27;20404;-74
2022/05/10 08:57:10;;;;;;;;;;;;;;;27.73;15.98;100895.97;5118327;27;19915;-74
2022/05/10 08:59:38;;;;;;;;;;;;;;;27.67;16.04;100897.16;5136886;27;19922;-74
2022/05/10 09:02:06;;;;;;;;;;;;;;;27.63;16.21;100893.34;5136412;27;19916;-73
2022/05/10 09:04:34;;;;;;;;;;;;;;;27.59;16.24;100892.28;5118314;27;19988;-76
2022/05/10 09:07:01;;;;;;;;;;;;;;;27.60;16.29;100881.03;5136257;27;19953;-74
2022/05/10 09:09:31;;;;;;;;;;;;;;;27.59;16.24;100886.81;5118384;27;19919;-74
2022/05/10 09:12:10;;;;;;;;;;;;;;;27.59;16.48;100884.06;5136590;27;19915;-74
2022/05/10 09:14:37;;;;;;;;;;;;;;;27.58;16.45;100879.66;5136283;27;20333;-73
2022/05/10 09:17:03;;;;;;;;;;;;;;;27.50;16.70;100876.44;5118070;27;19919;-74
2022/05/10 09:19:38;;;;;;;;;;;;;;;27.49;16.49;100879.47;5136277;27;20349;-76
2022/05/10 09:22:07;;;;;;;;;;;;;;;27.49;16.50;100877.56;5136519;27;20366;-75
2022/05/10 09:24:32;;;;;;;;;;;;;;;27.44;16.65;100871.28;5118502;27;19916;-73
2022/05/10 09:27:01;;;;;;;;;;;;;;;27.44;16.72;100872.13;5135769;27;20238;-76
2022/05/10 09:29:26;;;;;;;;;;;;;;;27.41;16.76;100860.91;5117820;27;19920;-74
2022/05/10 09:34:48;;;;;;;;;;;;;;;27.40;16.68;100854.59;5136355;27;19962;-75
2022/05/10 09:37:19;;;;;;;;;;;;;;;27.42;16.76;100855.09;5135479;27;19968;-74
2022/05/10 09:39:49;;;;;;;;;;;;;;;27.51;16.72;100847.91;5135634;27;20366;-74
2022/05/10 09:42:24;;;;;;;;;;;;;;;27.34;16.96;100844.78;5117377;27;19919;-75
2022/05/10 09:44:59;;;;;;;;;;;;;;;27.45;16.76;100840.81;5136171;27;20079;-74
2022/05/10 09:47:24;;;;;;;;;;;;;;;27.61;16.85;100843.41;5135669;27;19915;-76
2022/05/10 09:49:50;;;;;;;;;;;;;;;27.64;16.74;100834.59;5135776;27;19922;-74
2022/05/10 09:52:19;;;;;;;;;;;;;;;27.63;16.65;100831.03;5135786;27;20281;-75
2022/05/10 09:54:44;;;;;;;;;;;;;;;27.66;16.53;100844.16;5135956;27;19938;-75
2022/05/10 09:57:10;;;;;;;;;;;;;;;27.57;16.53;100834.13;5117526;27;20388;-74
2022/05/10 09:59:40;;;;;;;;;;;;;;;27.62;16.70;100839.56;5136611;27;19938;-74
2022/05/10 10:02:05;;;;;;;;;;;;;;;27.60;16.77;100839.03;5116834;27;19916;-74
2022/05/10 10:04:31;;;;;;;;;;;;;;;27.66;16.56;100835.91;5135433;27;19915;-73
2022/05/10 10:07:13;;;;;;;;;;;;;;;27.66;16.67;100832.34;5135758;27;20272;-74
2022/05/10 10:09:39;;;;;;;;;;;;;;;27.61;16.85;100826.94;5135636;27;20281;-73
2022/05/10 10:12:05;;;;;;;;;;;;;;;27.67;16.68;100834.00;5135277;27;20254;-73
2022/05/10 10:14:38;;;;;;;;;;;;;;;27.56;16.73;100822.28;5135603;27;20018;-73
2022/05/10 10:17:03;;;;;;;;;;;;;;;27.63;16.75;100824.69;5135278;27;19938;-72
2022/05/10 10:19:31;;;;;;;;;;;;;;;27.57;16.76;100820.41;5134757;27;20437;-74
2022/05/10 10:22:08;;;;;;;;;;;;;;;27.54;16.86;100821.78;5134960;27;19958;-74
2022/05/10 10:24:37;;;;;;;;;;;;;;;27.51;16.87;100809.47;5116235;27;20380;-75
2022/05/10 10:27:06;;;;;;;;;;;;;;;27.52;16.87;100808.34;5134567;27;19919;-74
2022/05/10 10:29:31;;;;;;;;;;;;;;;27.44;17.16;100799.94;5134872;27;19919;-74
2022/05/10 10:32:01;;;;;;;;;;;;;;;27.53;16.84;100799.00;5134873;27;19983;-75
2022/05/10 10:34:35;;;;;;;;;;;;;;;27.50;16.91;100796.84;5116814;27;19972;-74
2022/05/10 10:37:06;;;;;;;;;;;;;;;27.52;16.79;100796.56;5116559;27;20002;-74
2022/05/10 10:39:43;;;;;;;;;;;;;;;27.37;17.18;100793.97;5116423;27;19916;-74
2022/05/10 10:42:10;;;;;;;;;;;;;;;27.36;17.07;100787.69;5134801;27;19923;-77
2022/05/10 10:44:37;;;;;;;;;;;;;;;27.36;17.15;100782.19;5116384;27;19968;-75
2022/05/10 10:47:22;;;;;;;;;;;;;;;27.38;17.15;100784.66;5134057;27;19915;-75
2022/05/10 10:49:48;;;;;;;;;;;;;;;27.46;17.10;100786.75;5134384;27;20330;-74
2022/05/10 10:52:14;;;;;;;;;;;;;;;27.40;17.09;100780.47;5134569;27;19922;-73
2022/05/10 10:54:39;;;;;;;;;;;;;;;27.38;17.27;100785.44;5116318;28;19915;-76
2022/05/10 10:57:25;;;;;;;;;;;;;;;27.37;17.09;100783.00;5134209;28;19915;-76
2022/05/10 11:00:09;;;;;;;;;;;;;;;27.51;17.22;100779.28;5116076;28;20283;-75
2022/05/10 11:02:40;;;;;;;;;;;;;;;27.39;17.31;100776.13;5134593;28;20361;-75
2022/05/10 11:05:19;;;;;;;;;;;;;;;27.38;17.13;100769.00;5134559;28;19961;-75
2022/05/10 11:07:57;;;;;;;;;;;;;;;27.34;17.33;100765.19;5116369;28;19919;-74
2022/05/10 11:10:23;;;;;;;;;;;;;;;27.32;17.10;100760.00;5134462;28;20330;-74
2022/05/10 11:12:48;;;;;;;;;;;;;;;27.23;17.48;100756.22;5134688;28;19951;-75
2022/05/10 11:15:16;;;;;;;;;;;;;;;27.37;17.15;100761.03;5134794;28;19915;-75
2022/05/10 11:17:41;;;;;;;;;;;;;;;27.44;17.16;100762.34;5134354;28;20022;-75
2022/05/10 11:20:25;;;;;;;;;;;;;;;27.48;17.21;100744.16;5134791;28;19962;-76
2022/05/10 11:22:50;;;;;;;;;;;;;;;27.39;17.30;100737.69;5135889;28;19916;-75
2022/05/10 11:25:15;;;;;;;;;;;;;;;27.35;17.27;100731.16;5134577;28;19959;-75
2022/05/10 11:27:57;;;;;;;;;;;;;;;27.27;17.29;100737.22;5134430;28;19973;-75
2022/05/10 11:30:45;;;;;;;;;;;;;;;27.39;17.33;100736.88;5134518;28;19915;-76
2022/05/10 11:33:23;;;;;;;;;;;;;;;27.39;17.05;100737.69;5123589;28;20378;-75
2022/05/10 11:36:06;;;;;;;;;;;;;;;27.33;17.25;100730.63;5134307;28;19916;-74
2022/05/10 11:38:41;;;;;;;;;;;;;;;27.33;17.12;100722.38;5134614;28;19922;-76
2022/05/10 11:41:19;;;;;;;;;;;;;;;27.34;17.16;100718.56;5134522;28;19922;-74
2022/05/10 11:43:53;;;;;;;;;;;;;;;27.33;17.07;100714.16;5116235;28;19916;-75
2022/05/10 11:46:37;;;;;;;;;;;;;;;27.32;17.20;100709.78;5134641;28;19922;-76
2022/05/10 11:49:02;;;;;;;;;;;;;;;27.29;17.22;100721.34;5135026;28;19983;-75
2022/05/10 11:51:38;;;;;;;;;;;;;;;27.28;17.08;100723.25;5134203;28;19916;-76
2022/05/10 11:54:22;;;;;;;;;;;;;;;27.11;17.45;100723.72;5134955;28;19998;-76
2022/05/10 11:56:48;;;;;;;;;;;;;;;27.13;17.45;100724.22;5134489;28;19916;-76
2022/05/10 11:59:14;;;;;;;;;;;;;;;27.20;17.10;100706.59;5117346;27;20406;-76
2022/05/10 12:01:39;;;;;;;;;;;;;;;27.22;17.11;100709.88;5137863;27;19964;-75
2022/05/10 12:04:05;;;;;;;;;;;;;;;27.24;16.89;100702.16;5137937;27;19923;-76
2022/05/10 12:06:31;;;;;;;;;;;;;;;27.25;16.70;100692.81;5119438;27;19953;-74
2022/05/10 12:09:00;;;;;;;;;;;;;;;27.26;16.66;100706.25;5137919;27;19947;-76
2022/05/10 12:11:28;;;;;;;;;;;;;;;27.27;16.41;100712.53;5138925;27;19916;-75
2022/05/10 12:22:08;;;;;;;;;;;;;;;27.14;16.15;100706.66;5137285;27;19942;-74
2022/05/10 12:24:36;;;;;;;;;;;;;;;27.16;16.29;100725.56;5118886;27;19916;-74
2022/05/10 12:27:10;;;;;;;;;;;;;;;27.16;16.36;100712.69;5136728;27;19919;-75
2022/05/10 12:29:38;;;;;;;;;;;;;;;27.14;16.23;100706.66;5137381;27;19941;-76
2022/05/10 12:32:22;;;;;;;;;;;;;;;27.08;16.12;100709.72;5136562;27;19923;-76
2022/05/10 12:34:52;;;;;;;;;;;;;;;27.12;16.04;100722.59;5136750;27;19915;-73
2022/05/10 12:37:30;;;;;;;;;;;;;;;27.09;15.92;100706.69;5136665;27;19915;-74
2022/05/10 12:40:00;;;;;;;;;;;;;;;27.10;15.96;100708.34;5136723;27;19921;-75
2022/05/10 12:42:35;;;;;;;;;;;;;;;27.09;15.80;100703.97;5136732;27;19915;-75
2022/05/10 12:45:12;;;;;;;;;;;;;;;27.11;15.40;100710.00;5136791;27;19922;-73
2022/05/10 12:47:47;;;;;;;;;;;;;;;27.07;15.59;100697.94;5136807;27;19915;-74
2022/05/10 12:50:20;;;;;;;;;;;;;;;27.11;15.46;100699.03;5118465;27;20010;-74
2022/05/10 12:52:47;;;;;;;;;;;;;;;27.09;15.51;100694.94;5136348;27;19966;-73
2022/05/10 12:55:25;;;;;;;;;;;;;;;27.09;15.23;100679.28;5136711;27;19965;-75
2022/05/10 12:57:58;;;;;;;;;;;;;;;27.06;15.29;100677.13;5136212;27;19923;-75
2022/05/10 13:00:27;;;;;;;;;;;;;;;27.06;15.14;100676.28;5136769;27;20006;-72